Time;durP1;ratioP1;P1;durP2;ratioP2;P2;SDS_P1;SDS_P2;PMS_P1;PMS_P2;Temp;Humidity;BMP_temperature;BMP_pressure;BME280_temperature;BME280_humidity;BME280_pressure;Samples;Min_cycle;Max_cycle;Signal;HPM_P1;HPM_P2
2021/11/03 00:01:51;;;;;;;5.22;4.72;;;;;;;;;;5056186;28;20187;-74
2021/11/03 00:04:18;;;;;;;6.95;5.32;;;;;;;;;;5062418;28;20201;-75
2021/11/03 00:06:45;;;;;;;4.80;3.85;;;;;;;;;;5070127;28;20206;-74
2021/11/03 00:09:12;;;;;;;4.53;3.95;;;;;;;;;;5074581;28;20194;-75
2021/11/03 00:11:40;;;;;;;5.55;4.32;;;;;;;;;;5070903;28;20590;-74
2021/11/03 00:14:07;;;;;;;5.70;5.20;;;;;;;;;;5061106;28;20204;-74
2021/11/03 00:16:37;;;;;;;6.78;4.60;;;;;;;;;;5056523;28;20721;-75
2021/11/03 00:19:04;;;;;;;5.53;4.15;;;;;;;;;;5072886;28;20198;-75
2021/11/03 00:21:31;;;;;;;5.30;4.80;;;;;;;;;;5068682;28;20202;-74
2021/11/03 00:23:58;;;;;;;5.50;4.70;;;;;;;;;;5068622;28;20209;-74
2021/11/03 00:26:25;;;;;;;6.45;4.95;;;;;;;;;;5056991;28;20186;-74
2021/11/03 00:28:52;;;;;;;5.57;4.57;;;;;;;;;;5069871;28;20194;-75
2021/11/03 00:31:19;;;;;;;5.80;5.13;;;;;;;;;;5071232;28;20214;-74
2021/11/03 00:33:48;;;;;;;5.35;4.25;;;;;;;;;;5071503;28;20191;-75
2021/11/03 00:36:15;;;;;;;5.32;4.82;;;;;;;;;;5054816;28;20206;-75
2021/11/03 00:38:42;;;;;;;5.70;4.65;;;;;;;;;;5070468;28;20194;-75
2021/11/03 00:41:09;;;;;;;5.35;4.85;;;;;;;;;;5063031;28;20650;-75
2021/11/03 00:43:37;;;;;;;6.60;5.60;;;;;;;;;;5067856;28;20198;-75
2021/11/03 00:46:04;;;;;;;5.10;4.60;;;;;;;;;;5070750;28;20190;-74
2021/11/03 00:48:31;;;;;;;5.35;4.82;;;;;;;;;;5073870;28;20674;-75
2021/11/03 00:51:00;;;;;;;5.82;4.68;;;;;;;;;;5055651;28;20242;-76
2021/11/03 00:53:27;;;;;;;5.20;4.70;;;;;;;;;;5073168;28;20190;-76
2021/11/03 00:55:54;;;;;;;5.13;4.63;;;;;;;;;;5055958;28;20202;-76
2021/11/03 00:58:21;;;;;;;4.80;4.30;;;;;;;;;;5068656;28;20198;-75
2021/11/03 01:00:48;;;;;;;4.78;4.35;;;;;;;;;;5053383;28;20222;-75
2021/11/03 01:03:15;;;;;;;5.10;4.57;;;;;;;;;;5065336;28;20198;-74
2021/11/03 01:05:42;;;;;;;5.18;4.68;;;;;;;;;;5063913;28;20199;-74
2021/11/03 01:08:12;;;;;;;5.35;4.78;;;;;;;;;;5054327;28;20195;-75
2021/11/03 01:10:40;;;;;;;5.88;4.72;;;;;;;;;;5069559;28;20190;-75
2021/11/03 01:13:07;;;;;;;5.07;4.57;;;;;;;;;;5068490;28;20668;-74
2021/11/03 01:15:35;;;;;;;6.43;5.00;;;;;;;;;;5065342;28;20280;-75
2021/11/03 01:18:02;;;;;;;7.15;5.32;;;;;;;;;;5053865;28;20657;-74
2021/11/03 01:20:29;;;;;;;5.50;5.00;;;;;;;;;;5053712;28;20230;-75
2021/11/03 01:22:57;;;;;;;7.80;5.50;;;;;;;;;;5053289;28;20199;-74
2021/11/03 01:25:26;;;;;;;5.88;5.28;;;;;;;;;;5056820;28;20201;-75
2021/11/03 01:27:53;;;;;;;5.20;4.45;;;;;;;;;;5067703;28;20214;-75
2021/11/03 01:30:21;;;;;;;5.45;4.90;;;;;;;;;;5062292;28;20191;-74
2021/11/03 01:32:48;;;;;;;6.03;5.00;;;;;;;;;;5071788;28;20225;-74
2021/11/03 01:35:16;;;;;;;5.43;4.90;;;;;;;;;;5068540;28;20268;-74
2021/11/03 01:37:43;;;;;;;7.03;5.65;;;;;;;;;;5053616;28;20206;-73
2021/11/03 01:40:11;;;;;;;5.50;4.97;;;;;;;;;;5057574;28;20206;-73
2021/11/03 01:42:40;;;;;;;6.47;5.80;;;;;;;;;;5062529;28;20191;-74
2021/11/03 01:45:08;;;;;;;6.32;5.70;;;;;;;;;;5061201;28;20666;-74
2021/11/03 01:47:40;;;;;;;5.93;5.22;;;;;;;;;;5056151;28;20965;-75
2021/11/03 01:50:09;;;;;;;6.80;6.10;;;;;;;;;;5071368;28;20670;-74
2021/11/03 01:52:36;;;;;;;7.32;6.57;;;;;;;;;;5071539;28;20215;-74
2021/11/03 01:55:03;;;;;;;6.60;5.90;;;;;;;;;;5061027;28;20205;-75
2021/11/03 01:57:33;;;;;;;6.88;5.45;;;;;;;;;;5062756;28;20222;-74
2021/11/03 02:00:06;;;;;;;6.13;5.53;;;;;;;;;;5068916;28;20586;-75
2021/11/03 02:02:34;;;;;;;5.35;4.88;;;;;;;;;;5073099;28;20180;-76
2021/11/03 02:05:01;;;;;;;8.32;5.80;;;;;;;;;;5069179;28;20209;-76
2021/11/03 02:07:28;;;;;;;5.80;5.25;;;;;;;;;;5062854;28;20210;-75
2021/11/03 02:09:56;;;;;;;5.65;5.05;;;;;;;;;;5060984;28;20210;-74
2021/11/03 02:12:24;;;;;;;7.28;6.13;;;;;;;;;;5058063;28;20223;-75
2021/11/03 02:14:51;;;;;;;7.30;5.45;;;;;;;;;;5053283;28;20217;-74
2021/11/03 02:17:21;;;;;;;6.00;5.00;;;;;;;;;;5053040;28;20640;-76
2021/11/03 02:19:48;;;;;;;7.03;5.60;;;;;;;;;;5060418;28;20195;-74
2021/11/03 02:22:19;;;;;;;7.05;5.75;;;;;;;;;;5061164;28;20213;-75
2021/11/03 02:24:50;;;;;;;6.75;5.70;;;;;;;;;;5060334;28;20201;-74
2021/11/03 02:27:19;;;;;;;6.28;5.65;;;;;;;;;;5052378;28;20630;-75
2021/11/03 02:29:46;;;;;;;7.32;6.60;;;;;;;;;;5059597;28;20221;-74
2021/11/03 02:32:16;;;;;;;7.47;5.88;;;;;;;;;;5071388;28;20225;-74
2021/11/03 02:34:43;;;;;;;6.18;5.07;;;;;;;;;;5064233;28;20198;-75
2021/11/03 02:37:39;;;;;;;6.10;5.60;;;;;;;;;;5055019;28;20690;-76
2021/11/03 02:40:08;;;;;;;6.00;5.40;;;;;;;;;;5057214;28;20232;-76
2021/11/03 02:42:38;;;;;;;6.57;5.88;;;;;;;;;;5066474;28;20666;-75
2021/11/03 02:45:08;;;;;;;7.68;5.80;;;;;;;;;;5069243;28;20194;-75
2021/11/03 02:47:35;;;;;;;8.25;6.80;;;;;;;;;;5072490;28;20725;-75
2021/11/03 02:50:03;;;;;;;6.55;5.88;;;;;;;;;;5070956;28;20204;-74
2021/11/03 02:52:31;;;;;;;7.72;6.93;;;;;;;;;;5054620;28;20210;-75
2021/11/03 02:54:58;;;;;;;6.88;5.50;;;;;;;;;;5053952;28;20199;-75
2021/11/03 02:57:25;;;;;;;7.50;6.30;;;;;;;;;;5062084;28;20217;-74
2021/11/03 02:59:54;;;;;;;9.13;6.35;;;;;;;;;;5071286;28;20578;-73
2021/11/03 03:02:21;;;;;;;7.25;6.20;;;;;;;;;;5071454;28;20677;-73
2021/11/03 03:04:49;;;;;;;8.00;5.60;;;;;;;;;;5069150;28;20207;-75
2021/11/03 03:07:16;;;;;;;5.75;5.10;;;;;;;;;;5058862;28;20263;-78
2021/11/03 03:09:43;;;;;;;6.72;6.00;;;;;;;;;;5062507;28;20230;-78
2021/11/03 03:12:13;;;;;;;8.25;5.55;;;;;;;;;;5057114;28;20226;-77
2021/11/03 03:14:43;;;;;;;5.05;4.55;;;;;;;;;;5067534;28;20194;-76
2021/11/03 03:17:12;;;;;;;5.75;5.15;;;;;;;;;;5071788;28;20194;-78
2021/11/03 03:19:41;;;;;;;6.45;5.65;;;;;;;;;;5071557;28;20191;-76
2021/11/03 03:22:08;;;;;;;6.25;5.63;;;;;;;;;;5064921;28;20574;-77
2021/11/03 03:24:35;;;;;;;6.90;6.25;;;;;;;;;;5063207;28;20201;-76
2021/11/03 03:27:02;;;;;;;8.45;5.72;;;;;;;;;;5065178;28;20214;-77
2021/11/03 03:29:29;;;;;;;6.18;5.35;;;;;;;;;;5054777;28;20201;-76
2021/11/03 03:31:56;;;;;;;5.65;5.03;;;;;;;;;;5058565;28;20702;-77
2021/11/03 03:34:27;;;;;;;6.38;5.63;;;;;;;;;;5052778;28;20679;-76
2021/11/03 03:36:55;;;;;;;6.18;5.57;;;;;;;;;;5059315;28;20203;-76
2021/11/03 03:39:23;;;;;;;5.95;5.20;;;;;;;;;;5071048;28;20198;-77
2021/11/03 03:41:51;;;;;;;6.40;5.85;;;;;;;;;;5061445;28;20194;-77
2021/11/03 03:44:19;;;;;;;7.75;5.93;;;;;;;;;;5058442;28;20194;-77
2021/11/03 03:46:46;;;;;;;6.82;5.57;;;;;;;;;;5066667;28;20625;-76
2021/11/03 03:49:14;;;;;;;7.07;6.38;;;;;;;;;;5057080;28;20647;-77
2021/11/03 03:51:42;;;;;;;6.25;5.65;;;;;;;;;;5062298;28;20559;-77
2021/11/03 03:54:10;;;;;;;6.85;5.45;;;;;;;;;;5070782;28;20220;-77
2021/11/03 03:56:37;;;;;;;5.90;5.30;;;;;;;;;;5060340;28;21667;-77
2021/11/03 03:59:04;;;;;;;5.80;5.20;;;;;;;;;;5062478;28;20201;-76
2021/11/03 04:01:31;;;;;;;6.88;5.30;;;;;;;;;;5070919;28;20194;-76
2021/11/03 04:03:58;;;;;;;6.13;5.50;;;;;;;;;;5062062;28;20225;-77
2021/11/03 04:06:25;;;;;;;6.60;5.63;;;;;;;;;;5056166;28;20468;-77
2021/11/03 04:08:53;;;;;;;6.05;5.28;;;;;;;;;;5057465;28;20216;-76
2021/11/03 04:11:21;;;;;;;6.53;5.22;;;;;;;;;;5063175;28;20195;-77
2021/11/03 04:13:48;;;;;;;6.85;5.47;;;;;;;;;;5071285;28;20210;-77
2021/11/03 04:16:15;;;;;;;5.10;4.60;;;;;;;;;;5068548;28;20206;-77
2021/11/03 04:18:42;;;;;;;6.43;5.63;;;;;;;;;;5052177;28;20198;-77
2021/11/03 04:21:09;;;;;;;6.63;5.90;;;;;;;;;;5058570;28;20210;-77
2021/11/03 04:23:36;;;;;;;6.30;5.25;;;;;;;;;;5065414;28;20194;-77
2021/11/03 04:26:05;;;;;;;5.85;4.68;;;;;;;;;;5070439;28;20194;-77
2021/11/03 04:28:32;;;;;;;7.18;6.25;;;;;;;;;;5052193;28;20200;-77
2021/11/03 04:31:00;;;;;;;7.07;5.72;;;;;;;;;;5055424;28;20198;-77
2021/11/03 04:33:27;;;;;;;6.88;5.95;;;;;;;;;;5054479;28;20785;-77
2021/11/03 04:35:54;;;;;;;6.20;5.60;;;;;;;;;;5059804;28;20281;-76
2021/11/03 04:38:21;;;;;;;6.05;5.53;;;;;;;;;;5065062;28;20202;-76
2021/11/03 04:40:49;;;;;;;7.57;6.20;;;;;;;;;;5056659;28;20647;-76
2021/11/03 04:43:17;;;;;;;7.38;5.88;;;;;;;;;;5063694;28;20202;-76
2021/11/03 04:45:44;;;;;;;5.32;4.80;;;;;;;;;;5054528;28;20191;-76
2021/11/03 04:48:11;;;;;;;5.60;5.05;;;;;;;;;;5060281;28;20229;-76
2021/11/03 04:50:38;;;;;;;6.20;5.60;;;;;;;;;;5071223;28;20202;-76
2021/11/03 04:53:06;;;;;;;8.07;6.28;;;;;;;;;;5065208;28;20218;-76
2021/11/03 04:55:33;;;;;;;8.60;6.47;;;;;;;;;;5066116;28;20651;-76
2021/11/03 04:58:00;;;;;;;6.70;5.18;;;;;;;;;;5061771;28;20194;-77
2021/11/03 05:00:31;;;;;;;6.50;5.60;;;;;;;;;;5058446;28;20221;-76
2021/11/03 05:02:58;;;;;;;6.47;5.30;;;;;;;;;;5073818;28;20194;-77
2021/11/03 05:05:25;;;;;;;6.93;6.20;;;;;;;;;;5061153;28;20197;-76
2021/11/03 05:07:54;;;;;;;9.30;6.53;;;;;;;;;;5073888;28;20631;-77
2021/11/03 05:10:22;;;;;;;6.00;5.40;;;;;;;;;;5073935;28;20194;-76
2021/11/03 05:12:49;;;;;;;7.63;5.68;;;;;;;;;;5058539;28;20660;-76
2021/11/03 05:15:16;;;;;;;7.57;5.53;;;;;;;;;;5057891;28;20206;-76
2021/11/03 05:17:45;;;;;;;8.45;5.70;;;;;;;;;;5068220;28;20202;-76
2021/11/03 05:20:12;;;;;;;7.18;6.47;;;;;;;;;;5073278;28;20475;-76
2021/11/03 05:22:39;;;;;;;6.70;5.45;;;;;;;;;;5058390;28;20194;-76
2021/11/03 05:25:07;;;;;;;7.05;5.55;;;;;;;;;;5064738;28;20208;-77
2021/11/03 05:27:34;;;;;;;5.85;5.20;;;;;;;;;;5064898;28;20210;-77
2021/11/03 05:30:01;;;;;;;5.10;4.60;;;;;;;;;;5070794;28;20210;-78
2021/11/03 05:32:29;;;;;;;6.68;5.97;;;;;;;;;;5073510;28;20215;-77
2021/11/03 05:34:57;;;;;;;7.15;5.30;;;;;;;;;;5053864;28;20207;-77
2021/11/03 05:37:24;;;;;;;5.80;5.20;;;;;;;;;;5058671;28;20536;-77
2021/11/03 05:39:51;;;;;;;6.72;6.00;;;;;;;;;;5053727;28;20199;-77
2021/11/03 05:42:19;;;;;;;7.63;6.30;;;;;;;;;;5071221;28;20186;-77
2021/11/03 05:44:46;;;;;;;5.75;5.15;;;;;;;;;;5070197;28;20206;-77
2021/11/03 05:47:14;;;;;;;9.68;5.82;;;;;;;;;;5067706;28;20210;-77
2021/11/03 05:49:41;;;;;;;5.75;5.22;;;;;;;;;;5059589;28;20583;-77
2021/11/03 05:52:10;;;;;;;6.95;6.28;;;;;;;;;;5053610;28;20195;-77
2021/11/03 05:54:37;;;;;;;6.90;6.22;;;;;;;;;;5056010;28;20198;-77
2021/11/03 05:57:04;;;;;;;6.22;5.60;;;;;;;;;;5062854;28;20659;-76
2021/11/03 05:59:32;;;;;;;7.72;6.93;;;;;;;;;;5065061;28;20217;-76
2021/11/03 06:01:59;;;;;;;5.50;5.00;;;;;;;;;;5054442;28;20203;-76
2021/11/03 06:04:26;;;;;;;7.85;5.07;;;;;;;;;;5067293;28;20289;-76
2021/11/03 06:06:53;;;;;;;8.02;7.00;;;;;;;;;;5053351;28;20213;-75
2021/11/03 06:09:22;;;;;;;7.35;5.32;;;;;;;;;;5054177;28;20194;-75
2021/11/03 06:11:50;;;;;;;7.00;6.30;;;;;;;;;;5053141;28;20575;-76
2021/11/03 06:14:17;;;;;;;7.28;5.65;;;;;;;;;;5073342;28;20214;-78
2021/11/03 06:16:44;;;;;;;6.32;5.63;;;;;;;;;;5054811;28;20194;-76
2021/11/03 06:19:11;;;;;;;6.97;5.68;;;;;;;;;;5060768;28;20206;-77
2021/11/03 06:21:38;;;;;;;6.72;5.85;;;;;;;;;;5055554;28;20289;-77
2021/11/03 06:24:05;;;;;;;6.90;5.40;;;;;;;;;;5060418;28;20198;-77
2021/11/03 06:26:34;;;;;;;8.13;6.40;;;;;;;;;;5066400;28;20571;-78
2021/11/03 06:29:01;;;;;;;10.52;6.55;;;;;;;;;;5068795;28;20655;-77
2021/11/03 06:31:28;;;;;;;8.98;6.53;;;;;;;;;;5072619;28;20205;-78
2021/11/03 06:33:57;;;;;;;9.75;6.75;;;;;;;;;;5064986;28;20217;-78
2021/11/03 06:36:24;;;;;;;6.68;5.97;;;;;;;;;;5061578;28;20198;-77
2021/11/03 06:38:51;;;;;;;6.88;6.18;;;;;;;;;;5071637;28;20202;-77
2021/11/03 06:41:19;;;;;;;6.55;5.00;;;;;;;;;;5064807;28;20198;-78
2021/11/03 06:43:50;;;;;;;8.05;6.55;;;;;;;;;;5070286;28;20206;-77
2021/11/03 06:46:18;;;;;;;9.55;6.20;;;;;;;;;;5057359;28;20204;-78
2021/11/03 06:48:46;;;;;;;7.47;5.68;;;;;;;;;;5062992;28;20711;-77
2021/11/03 06:51:13;;;;;;;7.57;5.80;;;;;;;;;;5059559;28;20206;-77
2021/11/03 06:53:40;;;;;;;8.85;5.60;;;;;;;;;;5071956;28;20248;-80
2021/11/03 06:56:07;;;;;;;8.05;6.82;;;;;;;;;;5051581;28;20190;-79
2021/11/03 06:58:35;;;;;;;7.45;6.75;;;;;;;;;;5050680;28;20190;-79
2021/11/03 07:01:04;;;;;;;7.90;6.80;;;;;;;;;;5058317;28;20226;-80
2021/11/03 07:03:33;;;;;;;8.05;6.93;;;;;;;;;;5071071;28;20670;-79
2021/11/03 07:06:00;;;;;;;8.20;6.57;;;;;;;;;;5061996;28;20712;-79
2021/11/03 07:08:27;;;;;;;7.90;6.43;;;;;;;;;;5052418;28;20210;-79
2021/11/03 07:10:55;;;;;;;8.13;6.90;;;;;;;;;;5068861;28;20202;-80
2021/11/03 07:13:23;;;;;;;6.93;5.22;;;;;;;;;;5055735;28;20214;-79
2021/11/03 07:15:50;;;;;;;7.00;5.43;;;;;;;;;;5055186;28;20208;-79
2021/11/03 07:18:19;;;;;;;6.85;5.82;;;;;;;;;;5060457;28;20562;-79
2021/11/03 07:20:47;;;;;;;9.52;6.97;;;;;;;;;;5066673;28;20667;-78
2021/11/03 07:23:15;;;;;;;9.15;6.60;;;;;;;;;;5070154;28;20285;-79
2021/11/03 07:25:42;;;;;;;8.65;6.65;;;;;;;;;;5066712;28;20186;-79
2021/11/03 07:28:09;;;;;;;6.13;5.50;;;;;;;;;;5067859;28;20200;-80
2021/11/03 07:30:38;;;;;;;7.22;6.53;;;;;;;;;;5069001;28;20198;-80
2021/11/03 07:33:06;;;;;;;7.70;6.45;;;;;;;;;;5061214;28;20226;-79
2021/11/03 07:35:34;;;;;;;7.65;6.03;;;;;;;;;;5062740;28;20634;-78
2021/11/03 07:38:02;;;;;;;8.20;6.22;;;;;;;;;;5065334;28;20202;-77
2021/11/03 07:40:30;;;;;;;7.72;6.78;;;;;;;;;;5068287;28;20198;-78
2021/11/03 07:43:00;;;;;;;8.13;6.70;;;;;;;;;;5063858;28;20306;-79
2021/11/03 07:45:29;;;;;;;7.63;6.28;;;;;;;;;;5066698;28;20689;-77
2021/11/03 07:47:56;;;;;;;7.32;6.13;;;;;;;;;;5056434;28;20202;-78
2021/11/03 07:50:25;;;;;;;10.57;5.78;;;;;;;;;;5060978;28;20194;-79
2021/11/03 07:52:53;;;;;;;9.50;7.47;;;;;;;;;;5065576;28;20229;-78
2021/11/03 07:55:20;;;;;;;6.57;5.35;;;;;;;;;;5068971;28;20190;-78
2021/11/03 07:57:48;;;;;;;10.30;6.05;;;;;;;;;;5064753;28;20555;-78
2021/11/03 08:00:20;;;;;;;8.43;6.60;;;;;;;;;;5062487;28;20583;-79
2021/11/03 08:02:47;;;;;;;7.32;6.30;;;;;;;;;;5070117;28;20678;-79
2021/11/03 08:05:15;;;;;;;6.75;6.05;;;;;;;;;;5066311;28;20678;-78
2021/11/03 08:07:42;;;;;;;7.55;6.20;;;;;;;;;;5057994;28;20191;-79
2021/11/03 08:10:13;;;;;;;7.43;6.63;;;;;;;;;;5060283;28;20199;-78
2021/11/03 08:12:41;;;;;;;14.15;7.10;;;;;;;;;;5065472;28;20259;-78
2021/11/03 08:15:09;;;;;;;8.05;6.70;;;;;;;;;;5052703;28;20207;-79
2021/11/03 08:17:36;;;;;;;7.43;5.70;;;;;;;;;;5052146;28;20201;-79
2021/11/03 08:20:06;;;;;;;8.52;7.38;;;;;;;;;;5063461;28;20199;-79
2021/11/03 08:22:34;;;;;;;7.10;6.40;;;;;;;;;;5070164;28;20194;-79
2021/11/03 08:25:01;;;;;;;27.13;9.02;;;;;;;;;;5064025;28;20195;-79
2021/11/03 08:27:30;;;;;;;9.27;7.18;;;;;;;;;;5055587;28;20291;-77
2021/11/03 08:29:57;;;;;;;7.45;6.53;;;;;;;;;;5062108;28;20202;-80
2021/11/03 08:32:25;;;;;;;12.90;9.55;;;;;;;;;;5066623;28;20667;-77
2021/11/03 08:34:54;;;;;;;21.77;15.07;;;;;;;;;;5074580;28;20686;-80
2021/11/03 08:37:23;;;;;;;19.95;15.57;;;;;;;;;;5067654;28;20277;-80
2021/11/03 08:39:52;;;;;;;23.85;17.08;;;;;;;;;;5073719;28;20202;-78
2021/11/03 08:42:19;;;;;;;18.88;14.02;;;;;;;;;;5066293;28;20210;-79
2021/11/03 08:44:48;;;;;;;23.75;14.93;;;;;;;;;;5072800;28;20191;-79
2021/11/03 08:47:16;;;;;;;19.00;13.82;;;;;;;;;;5074715;28;20211;-80
2021/11/03 08:49:43;;;;;;;14.68;12.98;;;;;;;;;;5064750;28;20197;-80
2021/11/03 08:52:10;;;;;;;18.65;13.90;;;;;;;;;;5064646;28;20207;-80
2021/11/03 08:54:38;;;;;;;20.98;15.10;;;;;;;;;;5065264;28;20214;-82
2021/11/03 08:57:05;;;;;;;23.67;16.23;;;;;;;;;;5061071;28;20213;-82
2021/11/03 08:59:32;;;;;;;29.52;14.27;;;;;;;;;;5068215;28;20687;-80
2021/11/03 09:02:01;;;;;;;18.15;13.00;;;;;;;;;;5069061;28;20485;-80
2021/11/03 09:04:28;;;;;;;24.45;12.98;;;;;;;;;;5064449;28;20190;-80
2021/11/03 09:09:58;;;;;;;15.52;10.73;;;;;;;;;;5067066;28;21757;-79
2021/11/03 09:12:25;;;;;;;13.23;11.30;;;;;;;;;;5073970;28;20191;-77
2021/11/03 09:14:52;;;;;;;12.15;10.82;;;;;;;;;;5068681;28;20222;-80
2021/11/03 09:17:21;;;;;;;12.38;10.90;;;;;;;;;;5065902;28;20199;-74
2021/11/03 09:19:48;;;;;;;14.05;10.40;;;;;;;;;;5068790;28;20217;-79
2021/11/03 09:22:15;;;;;;;11.38;9.77;;;;;;;;;;5073571;28;20194;-80
2021/11/03 09:24:42;;;;;;;12.40;10.07;;;;;;;;;;5066280;28;20579;-80
2021/11/03 09:27:14;;;;;;;10.32;8.65;;;;;;;;;;5061402;28;20587;-81
2021/11/03 09:29:41;;;;;;;14.45;9.70;;;;;;;;;;5067986;28;20729;-81
2021/11/03 09:32:11;;;;;;;12.43;10.63;;;;;;;;;;5064907;28;20191;-80
2021/11/03 09:34:40;;;;;;;11.00;9.65;;;;;;;;;;5053077;28;20611;-80
2021/11/03 09:37:08;;;;;;;10.13;9.10;;;;;;;;;;5055683;28;20199;-80
2021/11/03 09:39:36;;;;;;;10.60;9.50;;;;;;;;;;5073041;28;20203;-80
2021/11/03 09:42:03;;;;;;;11.38;9.52;;;;;;;;;;5059642;28;20199;-80
2021/11/03 09:44:32;;;;;;;13.60;8.00;;;;;;;;;;5067853;28;20186;-80
2021/11/03 09:47:00;;;;;;;9.13;8.13;;;;;;;;;;5071357;28;20300;-79
2021/11/03 09:49:31;;;;;;;11.55;7.90;;;;;;;;;;5073021;28;20202;-80
2021/11/03 09:52:01;;;;;;;10.52;8.38;;;;;;;;;;5060750;28;20210;-81
2021/11/03 09:54:29;;;;;;;9.70;8.70;;;;;;;;;;5065302;28;20214;-80
2021/11/03 09:56:58;;;;;;;18.15;7.70;;;;;;;;;;5054770;28;20210;-80
2021/11/03 09:59:29;;;;;;;11.57;9.88;;;;;;;;;;5053407;28;20219;-80
2021/11/03 10:01:59;;;;;;;8.48;6.88;;;;;;;;;;5061434;28;20198;-80
2021/11/03 10:04:31;;;;;;;8.13;7.32;;;;;;;;;;5063147;28;20202;-80
2021/11/03 10:07:06;;;;;;;10.20;8.05;;;;;;;;;;5060884;28;20286;-80
2021/11/03 10:09:33;;;;;;;9.88;7.68;;;;;;;;;;5058266;28;20208;-80
2021/11/03 10:12:01;;;;;;;13.00;7.93;;;;;;;;;;5062870;28;20221;-80
2021/11/03 10:14:29;;;;;;;7.35;6.60;;;;;;;;;;5057930;28;20223;-80
2021/11/03 10:16:57;;;;;;;10.90;9.00;;;;;;;;;;5063205;28;20202;-79
2021/11/03 10:19:29;;;;;;;9.63;7.65;;;;;;;;;;5072667;28;20190;-80
2021/11/03 10:21:57;;;;;;;10.05;7.43;;;;;;;;;;5052475;28;20233;-80
2021/11/03 10:24:40;;;;;;;7.65;6.68;;;;;;;;;;5066657;28;20200;-80
2021/11/03 10:27:18;;;;;;;11.23;8.60;;;;;;;;;;5052194;28;20668;-80
2021/11/03 10:29:47;;;;;;;9.05;7.13;;;;;;;;;;5059163;28;20202;-80
2021/11/03 10:32:19;;;;;;;10.50;8.70;;;;;;;;;;5069808;28;20206;-80
2021/11/03 10:34:49;;;;;;;9.93;8.15;;;;;;;;;;5066257;28;20212;-80
2021/11/03 10:37:19;;;;;;;10.05;6.50;;;;;;;;;;5060976;28;20232;-80
2021/11/03 10:39:56;;;;;;;8.88;7.38;;;;;;;;;;5058450;28;20197;-80
2021/11/03 10:42:27;;;;;;;11.02;9.13;;;;;;;;;;5057950;28;20544;-80
2021/11/03 10:45:11;;;;;;;12.02;10.15;;;;;;;;;;5070592;28;20190;-81
2021/11/03 10:47:38;;;;;;;9.55;7.88;;;;;;;;;;5072380;28;20202;-81
2021/11/03 10:50:23;;;;;;;9.52;8.00;;;;;;;;;;5063614;28;20690;-81
2021/11/03 10:52:53;;;;;;;9.93;7.85;;;;;;;;;;5051447;28;20199;-81
2021/11/03 10:55:25;;;;;;;14.38;7.90;;;;;;;;;;5062183;28;20214;-81
2021/11/03 10:57:57;;;;;;;12.32;7.75;;;;;;;;;;5073821;28;20559;-80
2021/11/03 11:00:26;;;;;;;14.00;7.82;;;;;;;;;;5072028;28;20226;-82
2021/11/03 11:02:55;;;;;;;10.27;7.05;;;;;;;;;;5052463;28;20571;-82
2021/11/03 11:05:24;;;;;;;9.75;8.63;;;;;;;;;;5064600;28;20199;-80
2021/11/03 11:07:53;;;;;;;10.18;8.13;;;;;;;;;;5059397;28;20698;-82
2021/11/03 11:10:25;;;;;;;10.00;8.30;;;;;;;;;;5063539;28;20205;-82
2021/11/03 11:12:53;;;;;;;10.95;9.13;;;;;;;;;;5065640;28;20202;-82
2021/11/03 11:15:22;;;;;;;10.02;8.95;;;;;;;;;;5066709;28;20206;-81
2021/11/03 11:17:51;;;;;;;9.27;8.27;;;;;;;;;;5067178;28;20198;-82
2021/11/03 11:20:21;;;;;;;11.93;8.35;;;;;;;;;;5064216;28;20195;-81
2021/11/03 11:22:51;;;;;;;8.93;7.90;;;;;;;;;;5069892;28;20221;-82
2021/11/03 11:25:20;;;;;;;9.23;8.13;;;;;;;;;;5063240;28;20229;-81
2021/11/03 11:27:56;;;;;;;11.38;8.98;;;;;;;;;;5070977;28;20190;-82
2021/11/03 11:30:25;;;;;;;10.35;8.35;;;;;;;;;;5053489;28;20202;-82
2021/11/03 11:32:58;;;;;;;14.10;8.18;;;;;;;;;;5054672;28;20805;-83
2021/11/03 11:35:27;;;;;;;9.50;8.38;;;;;;;;;;5059952;28;20219;-82
2021/11/03 11:38:01;;;;;;;9.15;7.45;;;;;;;;;;5070388;28;20224;-81
2021/11/03 11:40:31;;;;;;;14.93;9.50;;;;;;;;;;5066825;28;20195;-81
2021/11/03 11:43:02;;;;;;;9.85;8.95;;;;;;;;;;5061970;28;20214;-80
2021/11/03 11:45:30;;;;;;;9.00;7.88;;;;;;;;;;5062230;28;20595;-81
2021/11/03 11:48:00;;;;;;;9.13;8.23;;;;;;;;;;5050322;28;20214;-83
2021/11/03 11:50:30;;;;;;;10.05;7.50;;;;;;;;;;5064525;28;20207;-81
2021/11/03 11:52:59;;;;;;;9.05;6.40;;;;;;;;;;5057226;28;20210;-81
2021/11/03 11:55:28;;;;;;;10.20;7.68;;;;;;;;;;5061925;28;20226;-82
2021/11/03 12:01:10;;;;;;;9.38;7.93;;;;;;;;;;5081702;28;20539;-80
2021/11/03 12:03:37;;;;;;;13.07;6.88;;;;;;;;;;5065211;28;20202;-80
2021/11/03 12:06:08;;;;;;;19.83;6.75;;;;;;;;;;5058441;28;20209;-79
2021/11/03 12:08:49;;;;;;;10.80;7.07;;;;;;;;;;5067893;28;20213;-80
2021/11/03 12:11:18;;;;;;;7.18;5.90;;;;;;;;;;5067400;28;20660;-81
2021/11/03 12:14:00;;;;;;;18.80;7.40;;;;;;;;;;5068562;28;20202;-81
2021/11/03 12:16:34;;;;;;;7.75;5.95;;;;;;;;;;5067516;28;20243;-79
2021/11/03 12:19:02;;;;;;;7.97;6.38;;;;;;;;;;5058775;28;20232;-78
2021/11/03 12:21:38;;;;;;;7.55;6.75;;;;;;;;;;5059364;28;20194;-78
2021/11/03 12:24:20;;;;;;;7.15;5.82;;;;;;;;;;5060346;28;20201;-80
2021/11/03 12:26:48;;;;;;;9.15;8.00;;;;;;;;;;5039329;28;20191;-80
2021/11/03 12:29:26;;;;;;;6.63;5.93;;;;;;;;;;5057691;28;20205;-81
2021/11/03 12:31:57;;;;;;;7.15;6.30;;;;;;;;;;5063267;28;20657;-79
2021/11/03 12:34:29;;;;;;;6.10;5.38;;;;;;;;;;5061698;28;20653;-81
2021/11/03 12:37:28;;;;;;;9.40;6.57;;;;;;;;;;5065017;28;20534;-77
2021/11/03 12:40:16;;;;;;;6.07;5.47;;;;;;;;;;5063557;28;20583;-79
2021/11/03 12:42:49;;;;;;;10.32;5.72;;;;;;;;;;5060218;28;20201;-78
2021/11/03 12:45:18;;;;;;;6.53;5.72;;;;;;;;;;5067530;28;20216;-82
2021/11/03 12:47:48;;;;;;;6.75;6.05;;;;;;;;;;5065497;28;20198;-82
2021/11/03 12:50:17;;;;;;;7.97;5.40;;;;;;;;;;5066992;28;20196;-82
2021/11/03 12:52:46;;;;;;;7.93;5.35;;;;;;;;;;5062166;28;20233;-82
2021/11/03 12:55:20;;;;;;;6.50;5.10;;;;;;;;;;5063276;28;20285;-80
2021/11/03 12:57:48;;;;;;;7.20;5.35;;;;;;;;;;5060792;28;20667;-78
2021/11/03 13:00:17;;;;;;;7.95;6.30;;;;;;;;;;5054665;28;20234;-79
2021/11/03 13:02:45;;;;;;;7.15;6.30;;;;;;;;;;5068612;28;20226;-80
2021/11/03 13:05:20;;;;;;;11.55;5.68;;;;;;;;;;5085387;28;20226;-80
2021/11/03 13:07:47;;;;;;;8.25;5.60;;;;;;;;;;5064436;28;20281;-80
2021/11/03 13:10:19;;;;;;;6.78;5.82;;;;;;;;;;5059078;28;20650;-80
2021/11/03 13:12:52;;;;;;;6.72;5.03;;;;;;;;;;5050899;28;20564;-80
2021/11/03 13:15:20;;;;;;;8.30;7.28;;;;;;;;;;5054358;28;20195;-81
2021/11/03 13:17:49;;;;;;;7.13;5.60;;;;;;;;;;5067025;28;20197;-81
2021/11/03 13:20:28;;;;;;;7.20;6.20;;;;;;;;;;5056420;28;20603;-81
2021/11/03 13:22:56;;;;;;;5.78;5.18;;;;;;;;;;5045588;28;20535;-81
2021/11/03 13:25:25;;;;;;;7.03;4.57;;;;;;;;;;5048179;28;20188;-81
2021/11/03 13:27:53;;;;;;;6.57;4.80;;;;;;;;;;5051127;28;20723;-80
2021/11/03 13:30:24;;;;;;;6.00;5.18;;;;;;;;;;5052628;28;20198;-77
2021/11/03 13:32:56;;;;;;;5.35;4.85;;;;;;;;;;5054089;28;20542;-79
2021/11/03 13:35:24;;;;;;;10.73;5.65;;;;;;;;;;5039747;28;20194;-79
2021/11/03 13:37:55;;;;;;;6.57;5.15;;;;;;;;;;5059707;28;20583;-81
2021/11/03 13:40:25;;;;;;;7.15;5.90;;;;;;;;;;5062232;28;20230;-80
2021/11/03 13:43:06;;;;;;;9.13;5.95;;;;;;;;;;5052947;28;20195;-79
2021/11/03 13:45:35;;;;;;;6.93;6.10;;;;;;;;;;5042162;28;20676;-79
2021/11/03 13:48:05;;;;;;;8.02;5.82;;;;;;;;;;5055620;28;20576;-79
2021/11/03 13:50:32;;;;;;;7.40;6.70;;;;;;;;;;5045312;28;20274;-78
2021/11/03 13:53:18;;;;;;;9.02;6.20;;;;;;;;;;5056075;28;20182;-79
2021/11/03 13:55:49;;;;;;;9.70;7.20;;;;;;;;;;5044224;28;20210;-80
2021/11/03 13:58:20;;;;;;;8.00;6.22;;;;;;;;;;5053211;28;20194;-80
2021/11/03 14:00:56;;;;;;;7.40;6.65;;;;;;;;;;5049538;28;20226;-80
2021/11/03 14:03:27;;;;;;;5.22;4.72;;;;;;;;;;5042298;28;20190;-80
2021/11/03 14:05:54;;;;;;;8.07;6.82;;;;;;;;;;5033424;28;20949;-79
2021/11/03 14:08:26;;;;;;;6.88;4.57;;;;;;;;;;5049618;28;20199;-80
2021/11/03 14:10:54;;;;;;;7.38;5.47;;;;;;;;;;5048804;28;20203;-80
2021/11/03 14:13:21;;;;;;;7.03;5.15;;;;;;;;;;5050492;28;20198;-80
2021/11/03 14:15:48;;;;;;;4.88;4.38;;;;;;;;;;5053234;28;20195;-80
2021/11/03 14:18:16;;;;;;;5.28;4.05;;;;;;;;;;5051992;28;20202;-79
2021/11/03 14:20:45;;;;;;;7.30;6.28;;;;;;;;;;5038411;28;20601;-79
2021/11/03 14:23:14;;;;;;;6.95;5.72;;;;;;;;;;5051122;28;20650;-80
2021/11/03 14:25:41;;;;;;;7.28;4.45;;;;;;;;;;5051269;28;20195;-79
2021/11/03 14:28:11;;;;;;;6.57;5.55;;;;;;;;;;5052759;28;20191;-80
2021/11/03 14:30:41;;;;;;;6.20;4.90;;;;;;;;;;5050184;28;20593;-80
2021/11/03 14:33:18;;;;;;;8.90;5.70;;;;;;;;;;5050525;28;20215;-80
2021/11/03 14:35:45;;;;;;;5.80;5.30;;;;;;;;;;5045353;28;20199;-79
2021/11/03 14:38:18;;;;;;;10.65;5.68;;;;;;;;;;5052275;28;20195;-80
2021/11/03 14:40:45;;;;;;;5.05;4.55;;;;;;;;;;5048679;28;20219;-79
2021/11/03 14:43:14;;;;;;;4.40;4.00;;;;;;;;;;5051955;28;20229;-79
2021/11/03 14:45:41;;;;;;;5.18;4.68;;;;;;;;;;5050722;28;20221;-80
2021/11/03 14:48:08;;;;;;;5.90;5.32;;;;;;;;;;5046475;28;20225;-80
2021/11/03 14:50:35;;;;;;;7.85;7.10;;;;;;;;;;5047288;28;20214;-80
2021/11/03 14:53:04;;;;;;;7.30;6.22;;;;;;;;;;5052258;28;20195;-79
2021/11/03 14:55:32;;;;;;;6.50;5.40;;;;;;;;;;5047232;28;20577;-79
2021/11/03 14:58:00;;;;;;;5.78;4.97;;;;;;;;;;5051143;28;20191;-79